sensor_id;sensor_type;location;lat;lon;timestamp;P1;durP1;ratioP1;P2;durP2;ratioP2
47403;SDS011;33157;51.508;4.288;2023-02-14T00:04:24;26.58;;;17.10;;
47403;SDS011;33157;51.508;4.288;2023-02-14T00:09:30;28.05;;;17.38;;
47403;SDS011;33157;51.508;4.288;2023-02-14T00:14:32;26.27;;;17.40;;
47403;SDS011;33157;51.508;4.288;2023-02-14T00:19:59;29.05;;;17.88;;
47403;SDS011;33157;51.508;4.288;2023-02-14T00:25:00;29.95;;;17.00;;
47403;SDS011;33157;51.508;4.288;2023-02-14T00:30:01;30.15;;;17.65;;
47403;SDS011;33157;51.508;4.288;2023-02-14T00:35:05;29.73;;;17.73;;
47403;SDS011;33157;51.508;4.288;2023-02-14T00:40:08;28.27;;;17.30;;
47403;SDS011;33157;51.508;4.288;2023-02-14T00:45:15;31.20;;;17.42;;
47403;SDS011;33157;51.508;4.288;2023-02-14T00:50:18;28.27;;;17.25;;
47403;SDS011;33157;51.508;4.288;2023-02-14T00:55:25;32.95;;;17.27;;
47403;SDS011;33157;51.508;4.288;2023-02-14T01:00:29;29.65;;;17.85;;
47403;SDS011;33157;51.508;4.288;2023-02-14T01:10:32;27.48;;;16.33;;
47403;SDS011;33157;51.508;4.288;2023-02-14T01:15:40;27.40;;;16.88;;
47403;SDS011;33157;51.508;4.288;2023-02-14T01:21:30;25.08;;;15.05;;
47403;SDS011;33157;51.508;4.288;2023-02-14T01:26:33;25.65;;;15.80;;
47403;SDS011;33157;51.508;4.288;2023-02-14T01:31:41;24.25;;;16.35;;
47403;SDS011;33157;51.508;4.288;2023-02-14T01:36:50;26.35;;;15.52;;
47403;SDS011;33157;51.508;4.288;2023-02-14T01:41:54;24.58;;;15.40;;
47403;SDS011;33157;51.508;4.288;2023-02-14T01:46:57;29.20;;;15.63;;
47403;SDS011;33157;51.508;4.288;2023-02-14T01:52:34;30.42;;;17.27;;
47403;SDS011;33157;51.508;4.288;2023-02-14T01:57:39;26.50;;;16.70;;
47403;SDS011;33157;51.508;4.288;2023-02-14T02:02:48;25.38;;;16.58;;
47403;SDS011;33157;51.508;4.288;2023-02-14T02:08:04;25.83;;;15.40;;
47403;SDS011;33157;51.508;4.288;2023-02-14T02:13:14;32.70;;;16.67;;
47403;SDS011;33157;51.508;4.288;2023-02-14T02:51:23;29.83;;;17.05;;
47403;SDS011;33157;51.508;4.288;2023-02-14T02:56:49;30.90;;;18.73;;
47403;SDS011;33157;51.508;4.288;2023-02-14T03:18:23;30.58;;;18.65;;
47403;SDS011;33157;51.508;4.288;2023-02-14T03:23:59;29.95;;;18.33;;
47403;SDS011;33157;51.508;4.288;2023-02-14T03:29:25;32.97;;;18.92;;
47403;SDS011;33157;51.508;4.288;2023-02-14T03:34:42;32.10;;;19.60;;
47403;SDS011;33157;51.508;4.288;2023-02-14T03:45:08;31.98;;;19.75;;
47403;SDS011;33157;51.508;4.288;2023-02-14T03:50:19;35.05;;;21.27;;
47403;SDS011;33157;51.508;4.288;2023-02-14T03:55:42;34.55;;;21.13;;
47403;SDS011;33157;51.508;4.288;2023-02-14T04:00:49;42.75;;;23.83;;
47403;SDS011;33157;51.508;4.288;2023-02-14T04:05:53;41.47;;;21.52;;
47403;SDS011;33157;51.508;4.288;2023-02-14T04:10:56;35.35;;;21.00;;
47403;SDS011;33157;51.508;4.288;2023-02-14T04:16:02;36.35;;;21.17;;
47403;SDS011;33157;51.508;4.288;2023-02-14T04:21:04;38.00;;;21.42;;
47403;SDS011;33157;51.508;4.288;2023-02-14T04:26:08;35.22;;;19.63;;
47403;SDS011;33157;51.508;4.288;2023-02-14T04:31:11;38.03;;;22.20;;
47403;SDS011;33157;51.508;4.288;2023-02-14T04:36:12;35.70;;;20.90;;
47403;SDS011;33157;51.508;4.288;2023-02-14T04:46:15;34.42;;;21.15;;
47403;SDS011;33157;51.508;4.288;2023-02-14T04:51:19;39.45;;;21.98;;
47403;SDS011;33157;51.508;4.288;2023-02-14T04:56:20;40.38;;;23.15;;
47403;SDS011;33157;51.508;4.288;2023-02-14T05:01:21;49.40;;;27.27;;
47403;SDS011;33157;51.508;4.288;2023-02-14T05:06:25;45.17;;;24.83;;
47403;SDS011;33157;51.508;4.288;2023-02-14T05:11:29;51.25;;;26.55;;
47403;SDS011;33157;51.508;4.288;2023-02-14T05:16:31;46.23;;;26.33;;
47403;SDS011;33157;51.508;4.288;2023-02-14T05:21:32;44.75;;;25.67;;
47403;SDS011;33157;51.508;4.288;2023-02-14T05:26:35;44.80;;;25.40;;
47403;SDS011;33157;51.508;4.288;2023-02-14T05:31:38;47.05;;;27.02;;
47403;SDS011;33157;51.508;4.288;2023-02-14T05:36:48;47.58;;;26.63;;
47403;SDS011;33157;51.508;4.288;2023-02-14T05:41:51;48.80;;;25.67;;
47403;SDS011;33157;51.508;4.288;2023-02-14T05:46:55;53.42;;;27.45;;
47403;SDS011;33157;51.508;4.288;2023-02-14T05:51:56;51.92;;;28.23;;
47403;SDS011;33157;51.508;4.288;2023-02-14T05:57:03;52.22;;;27.77;;
47403;SDS011;33157;51.508;4.288;2023-02-14T06:02:04;50.83;;;28.13;;
47403;SDS011;33157;51.508;4.288;2023-02-14T06:07:05;56.15;;;28.83;;
47403;SDS011;33157;51.508;4.288;2023-02-14T06:12:06;52.50;;;28.08;;
47403;SDS011;33157;51.508;4.288;2023-02-14T06:17:09;56.50;;;30.00;;
47403;SDS011;33157;51.508;4.288;2023-02-14T06:22:15;52.58;;;29.13;;
47403;SDS011;33157;51.508;4.288;2023-02-14T06:27:17;64.05;;;30.35;;
47403;SDS011;33157;51.508;4.288;2023-02-14T06:32:27;58.30;;;30.02;;
47403;SDS011;33157;51.508;4.288;2023-02-14T06:37:28;59.80;;;31.30;;
47403;SDS011;33157;51.508;4.288;2023-02-14T06:42:29;59.05;;;31.42;;
47403;SDS011;33157;51.508;4.288;2023-02-14T06:47:36;63.15;;;30.52;;
47403;SDS011;33157;51.508;4.288;2023-02-14T06:52:42;57.15;;;30.35;;
47403;SDS011;33157;51.508;4.288;2023-02-14T06:57:49;52.85;;;29.33;;
47403;SDS011;33157;51.508;4.288;2023-02-14T07:02:52;54.65;;;30.33;;
47403;SDS011;33157;51.508;4.288;2023-02-14T07:08:00;57.85;;;31.45;;
47403;SDS011;33157;51.508;4.288;2023-02-14T07:13:04;59.28;;;30.63;;
47403;SDS011;33157;51.508;4.288;2023-02-14T07:18:10;54.08;;;28.50;;
47403;SDS011;33157;51.508;4.288;2023-02-14T07:23:11;53.27;;;29.47;;
47403;SDS011;33157;51.508;4.288;2023-02-14T07:28:12;59.85;;;30.40;;
47403;SDS011;33157;51.508;4.288;2023-02-14T07:33:23;58.38;;;31.13;;
47403;SDS011;33157;51.508;4.288;2023-02-14T07:38:34;54.65;;;30.50;;
47403;SDS011;33157;51.508;4.288;2023-02-14T07:43:40;62.80;;;30.95;;
47403;SDS011;33157;51.508;4.288;2023-02-14T07:48:42;57.42;;;30.80;;
47403;SDS011;33157;51.508;4.288;2023-02-14T07:53:44;57.88;;;32.20;;
47403;SDS011;33157;51.508;4.288;2023-02-14T07:58:49;61.55;;;33.65;;
47403;SDS011;33157;51.508;4.288;2023-02-14T08:03:50;55.70;;;30.45;;
47403;SDS011;33157;51.508;4.288;2023-02-14T08:09:00;55.25;;;32.00;;
47403;SDS011;33157;51.508;4.288;2023-02-14T08:14:01;52.92;;;31.42;;
47403;SDS011;33157;51.508;4.288;2023-02-14T08:19:09;59.80;;;32.55;;
47403;SDS011;33157;51.508;4.288;2023-02-14T08:24:12;57.42;;;30.85;;
47403;SDS011;33157;51.508;4.288;2023-02-14T08:29:24;65.05;;;33.80;;
47403;SDS011;33157;51.508;4.288;2023-02-14T08:34:26;60.42;;;33.40;;
47403;SDS011;33157;51.508;4.288;2023-02-14T08:39:30;67.57;;;37.03;;
47403;SDS011;33157;51.508;4.288;2023-02-14T08:44:47;62.15;;;35.10;;
47403;SDS011;33157;51.508;4.288;2023-02-14T08:49:48;63.08;;;37.47;;
47403;SDS011;33157;51.508;4.288;2023-02-14T08:54:50;69.20;;;36.85;;
47403;SDS011;33157;51.508;4.288;2023-02-14T08:59:53;65.53;;;38.70;;
47403;SDS011;33157;51.508;4.288;2023-02-14T09:05:00;64.32;;;37.80;;
47403;SDS011;33157;51.508;4.288;2023-02-14T09:10:11;77.60;;;46.63;;
47403;SDS011;33157;51.508;4.288;2023-02-14T09:15:19;42.20;;;26.65;;
47403;SDS011;33157;51.508;4.288;2023-02-14T09:20:20;37.67;;;24.05;;
47403;SDS011;33157;51.508;4.288;2023-02-14T09:25:22;35.00;;;22.35;;
47403;SDS011;33157;51.508;4.288;2023-02-14T09:30:24;29.45;;;20.48;;
47403;SDS011;33157;51.508;4.288;2023-02-14T09:35:25;35.08;;;22.45;;
47403;SDS011;33157;51.508;4.288;2023-02-14T09:40:54;30.58;;;21.92;;
47403;SDS011;33157;51.508;4.288;2023-02-14T09:46:01;30.45;;;21.35;;
47403;SDS011;33157;51.508;4.288;2023-02-14T10:01:50;29.88;;;20.70;;
47403;SDS011;33157;51.508;4.288;2023-02-14T10:07:33;31.67;;;22.00;;
47403;SDS011;33157;51.508;4.288;2023-02-14T10:12:43;29.02;;;20.38;;
47403;SDS011;33157;51.508;4.288;2023-02-14T10:18:02;30.10;;;20.75;;
47403;SDS011;33157;51.508;4.288;2023-02-14T10:28:53;29.45;;;21.55;;
47403;SDS011;33157;51.508;4.288;2023-02-14T10:34:02;29.52;;;21.80;;
47403;SDS011;33157;51.508;4.288;2023-02-14T10:39:43;31.60;;;21.23;;
47403;SDS011;33157;51.508;4.288;2023-02-14T10:45:30;31.10;;;21.80;;
47403;SDS011;33157;51.508;4.288;2023-02-14T11:01:22;34.00;;;23.30;;
47403;SDS011;33157;51.508;4.288;2023-02-14T11:11:36;34.08;;;23.58;;
47403;SDS011;33157;51.508;4.288;2023-02-14T11:22:43;36.58;;;23.55;;
47403;SDS011;33157;51.508;4.288;2023-02-14T11:27:46;33.70;;;24.35;;
47403;SDS011;33157;51.508;4.288;2023-02-14T11:32:54;38.65;;;24.63;;
47403;SDS011;33157;51.508;4.288;2023-02-14T11:37:56;43.50;;;25.40;;
47403;SDS011;33157;51.508;4.288;2023-02-14T11:43:32;40.85;;;25.15;;
47403;SDS011;33157;51.508;4.288;2023-02-14T11:48:38;39.70;;;26.15;;
47403;SDS011;33157;51.508;4.288;2023-02-14T11:53:55;37.50;;;25.60;;
47403;SDS011;33157;51.508;4.288;2023-02-14T11:59:02;39.40;;;28.35;;
47403;SDS011;33157;51.508;4.288;2023-02-14T12:04:14;40.38;;;28.42;;
47403;SDS011;33157;51.508;4.288;2023-02-14T12:14:29;38.15;;;25.80;;
47403;SDS011;33157;51.508;4.288;2023-02-14T12:25:02;42.88;;;28.92;;
47403;SDS011;33157;51.508;4.288;2023-02-14T12:30:13;39.00;;;27.75;;
47403;SDS011;33157;51.508;4.288;2023-02-14T12:51:22;40.15;;;27.17;;
47403;SDS011;33157;51.508;4.288;2023-02-14T13:18:48;42.58;;;27.90;;
47403;SDS011;33157;51.508;4.288;2023-02-14T13:23:54;41.95;;;28.30;;
47403;SDS011;33157;51.508;4.288;2023-02-14T13:29:32;43.00;;;30.17;;
47403;SDS011;33157;51.508;4.288;2023-02-14T13:34:43;42.83;;;29.73;;
47403;SDS011;33157;51.508;4.288;2023-02-14T13:39:54;41.10;;;30.52;;
47403;SDS011;33157;51.508;4.288;2023-02-14T13:45:02;47.75;;;31.27;;
47403;SDS011;33157;51.508;4.288;2023-02-14T13:50:18;46.80;;;32.27;;
47403;SDS011;33157;51.508;4.288;2023-02-14T13:55:22;47.97;;;32.88;;
47403;SDS011;33157;51.508;4.288;2023-02-14T14:00:36;45.38;;;30.67;;
47403;SDS011;33157;51.508;4.288;2023-02-14T14:05:44;45.72;;;32.47;;
47403;SDS011;33157;51.508;4.288;2023-02-14T14:10:49;44.92;;;31.60;;
47403;SDS011;33157;51.508;4.288;2023-02-14T14:21:24;50.67;;;31.10;;
47403;SDS011;33157;51.508;4.288;2023-02-14T14:26:39;47.88;;;31.25;;
47403;SDS011;33157;51.508;4.288;2023-02-14T14:31:52;46.53;;;30.42;;
47403;SDS011;33157;51.508;4.288;2023-02-14T14:37:01;45.58;;;29.88;;
47403;SDS011;33157;51.508;4.288;2023-02-14T14:42:12;45.38;;;30.38;;
47403;SDS011;33157;51.508;4.288;2023-02-14T14:47:24;43.88;;;28.85;;
47403;SDS011;33157;51.508;4.288;2023-02-14T14:52:35;41.92;;;27.65;;
47403;SDS011;33157;51.508;4.288;2023-02-14T14:57:38;44.30;;;29.80;;
47403;SDS011;33157;51.508;4.288;2023-02-14T15:02:56;41.35;;;28.00;;
47403;SDS011;33157;51.508;4.288;2023-02-14T15:08:21;45.20;;;28.35;;
47403;SDS011;33157;51.508;4.288;2023-02-14T15:13:35;40.97;;;27.17;;
47403;SDS011;33157;51.508;4.288;2023-02-14T15:18:57;37.90;;;26.58;;
47403;SDS011;33157;51.508;4.288;2023-02-14T15:24:10;40.03;;;27.25;;
47403;SDS011;33157;51.508;4.288;2023-02-14T15:29:27;40.47;;;27.98;;
47403;SDS011;33157;51.508;4.288;2023-02-14T15:34:34;44.67;;;29.40;;
47403;SDS011;33157;51.508;4.288;2023-02-14T15:44:40;42.30;;;27.60;;
47403;SDS011;33157;51.508;4.288;2023-02-14T15:49:41;39.40;;;28.17;;
47403;SDS011;33157;51.508;4.288;2023-02-14T15:54:52;42.03;;;30.30;;
47403;SDS011;33157;51.508;4.288;2023-02-14T16:00:13;40.72;;;28.85;;
47403;SDS011;33157;51.508;4.288;2023-02-14T16:05:22;44.35;;;30.60;;
47403;SDS011;33157;51.508;4.288;2023-02-14T16:10:28;40.65;;;28.83;;
47403;SDS011;33157;51.508;4.288;2023-02-14T16:15:34;38.63;;;28.00;;
47403;SDS011;33157;51.508;4.288;2023-02-14T16:20:43;47.42;;;33.70;;
47403;SDS011;33157;51.508;4.288;2023-02-14T16:25:49;44.67;;;31.02;;
47403;SDS011;33157;51.508;4.288;2023-02-14T16:30:56;45.92;;;30.95;;
47403;SDS011;33157;51.508;4.288;2023-02-14T16:36:05;49.15;;;31.25;;
47403;SDS011;33157;51.508;4.288;2023-02-14T16:41:20;47.20;;;31.17;;
47403;SDS011;33157;51.508;4.288;2023-02-14T16:46:28;49.97;;;30.83;;
47403;SDS011;33157;51.508;4.288;2023-02-14T16:51:35;47.85;;;33.50;;
47403;SDS011;33157;51.508;4.288;2023-02-14T16:56:53;47.92;;;31.85;;
47403;SDS011;33157;51.508;4.288;2023-02-14T17:02:05;50.85;;;32.42;;
47403;SDS011;33157;51.508;4.288;2023-02-14T17:07:07;55.90;;;34.28;;
47403;SDS011;33157;51.508;4.288;2023-02-14T17:12:15;48.97;;;32.60;;
47403;SDS011;33157;51.508;4.288;2023-02-14T17:17:25;51.83;;;32.73;;
47403;SDS011;33157;51.508;4.288;2023-02-14T17:22:37;56.30;;;35.80;;
47403;SDS011;33157;51.508;4.288;2023-02-14T17:27:45;54.38;;;33.55;;
47403;SDS011;33157;51.508;4.288;2023-02-14T17:32:55;52.90;;;34.10;;
47403;SDS011;33157;51.508;4.288;2023-02-14T17:37:58;52.83;;;33.88;;
47403;SDS011;33157;51.508;4.288;2023-02-14T17:42:59;49.95;;;33.28;;
47403;SDS011;33157;51.508;4.288;2023-02-14T17:48:06;53.10;;;34.00;;
47403;SDS011;33157;51.508;4.288;2023-02-14T17:53:12;54.67;;;36.22;;
47403;SDS011;33157;51.508;4.288;2023-02-14T17:58:13;55.30;;;35.97;;
47403;SDS011;33157;51.508;4.288;2023-02-14T18:03:14;53.28;;;34.03;;
47403;SDS011;33157;51.508;4.288;2023-02-14T18:08:28;57.95;;;35.47;;
47403;SDS011;33157;51.508;4.288;2023-02-14T18:13:36;53.05;;;34.90;;
47403;SDS011;33157;51.508;4.288;2023-02-14T18:18:49;55.08;;;35.08;;
47403;SDS011;33157;51.508;4.288;2023-02-14T18:23:54;58.70;;;36.47;;
47403;SDS011;33157;51.508;4.288;2023-02-14T18:29:00;64.00;;;37.00;;
47403;SDS011;33157;51.508;4.288;2023-02-14T18:34:06;55.25;;;35.75;;
47403;SDS011;33157;51.508;4.288;2023-02-14T18:39:08;59.80;;;36.90;;
47403;SDS011;33157;51.508;4.288;2023-02-14T18:44:16;58.67;;;38.78;;
47403;SDS011;33157;51.508;4.288;2023-02-14T18:49:18;59.08;;;38.22;;
47403;SDS011;33157;51.508;4.288;2023-02-14T18:54:19;62.47;;;38.43;;
47403;SDS011;33157;51.508;4.288;2023-02-14T18:59:21;60.70;;;37.78;;
47403;SDS011;33157;51.508;4.288;2023-02-14T19:04:23;61.17;;;37.90;;
47403;SDS011;33157;51.508;4.288;2023-02-14T19:14:46;63.85;;;41.13;;
47403;SDS011;33157;51.508;4.288;2023-02-14T19:19:53;65.00;;;40.72;;
47403;SDS011;33157;51.508;4.288;2023-02-14T19:24:54;67.55;;;42.42;;
47403;SDS011;33157;51.508;4.288;2023-02-14T19:30:21;68.13;;;42.95;;
47403;SDS011;33157;51.508;4.288;2023-02-14T19:35:22;69.53;;;45.25;;
47403;SDS011;33157;51.508;4.288;2023-02-14T19:40:23;71.57;;;43.75;;
47403;SDS011;33157;51.508;4.288;2023-02-14T19:45:27;76.38;;;45.00;;
47403;SDS011;33157;51.508;4.288;2023-02-14T19:50:32;69.95;;;42.97;;
47403;SDS011;33157;51.508;4.288;2023-02-14T19:55:39;70.00;;;41.78;;
47403;SDS011;33157;51.508;4.288;2023-02-14T20:00:59;72.15;;;43.33;;
47403;SDS011;33157;51.508;4.288;2023-02-14T20:06:02;73.90;;;43.85;;
47403;SDS011;33157;51.508;4.288;2023-02-14T20:11:04;68.97;;;45.42;;
47403;SDS011;33157;51.508;4.288;2023-02-14T20:16:23;68.45;;;42.50;;
47403;SDS011;33157;51.508;4.288;2023-02-14T20:21:29;78.40;;;47.20;;
47403;SDS011;33157;51.508;4.288;2023-02-14T20:26:38;78.75;;;50.28;;
47403;SDS011;33157;51.508;4.288;2023-02-14T20:36:56;84.70;;;51.95;;
47403;SDS011;33157;51.508;4.288;2023-02-14T20:41:59;98.88;;;61.35;;
47403;SDS011;33157;51.508;4.288;2023-02-14T20:47:12;101.10;;;59.30;;
47403;SDS011;33157;51.508;4.288;2023-02-14T20:52:17;90.13;;;56.22;;
47403;SDS011;33157;51.508;4.288;2023-02-14T20:57:25;86.18;;;56.20;;
47403;SDS011;33157;51.508;4.288;2023-02-14T21:02:28;89.07;;;54.35;;
47403;SDS011;33157;51.508;4.288;2023-02-14T21:07:38;87.20;;;52.08;;
47403;SDS011;33157;51.508;4.288;2023-02-14T21:12:41;82.53;;;50.70;;
47403;SDS011;33157;51.508;4.288;2023-02-14T21:17:45;82.13;;;49.08;;
47403;SDS011;33157;51.508;4.288;2023-02-14T21:22:54;81.47;;;49.13;;
47403;SDS011;33157;51.508;4.288;2023-02-14T21:27:57;77.53;;;48.95;;
47403;SDS011;33157;51.508;4.288;2023-02-14T21:33:08;79.30;;;49.33;;
47403;SDS011;33157;51.508;4.288;2023-02-14T21:38:11;82.15;;;47.42;;
47403;SDS011;33157;51.508;4.288;2023-02-14T21:43:16;76.53;;;47.13;;
47403;SDS011;33157;51.508;4.288;2023-02-14T21:48:18;82.05;;;47.70;;
47403;SDS011;33157;51.508;4.288;2023-02-14T21:53:51;75.15;;;46.65;;
47403;SDS011;33157;51.508;4.288;2023-02-14T21:58:55;74.18;;;46.35;;
47403;SDS011;33157;51.508;4.288;2023-02-14T22:04:04;77.28;;;46.25;;
47403;SDS011;33157;51.508;4.288;2023-02-14T22:09:09;80.95;;;46.78;;
47403;SDS011;33157;51.508;4.288;2023-02-14T22:14:17;72.03;;;43.47;;
47403;SDS011;33157;51.508;4.288;2023-02-14T22:19:22;71.93;;;44.05;;
47403;SDS011;33157;51.508;4.288;2023-02-14T22:24:23;74.50;;;44.55;;
47403;SDS011;33157;51.508;4.288;2023-02-14T22:29:30;79.27;;;46.00;;
47403;SDS011;33157;51.508;4.288;2023-02-14T22:34:31;82.32;;;46.92;;
47403;SDS011;33157;51.508;4.288;2023-02-14T22:39:38;76.57;;;46.90;;
47403;SDS011;33157;51.508;4.288;2023-02-14T22:44:41;76.22;;;47.42;;
47403;SDS011;33157;51.508;4.288;2023-02-14T22:49:48;83.82;;;49.03;;
47403;SDS011;33157;51.508;4.288;2023-02-14T22:54:54;81.88;;;48.95;;
47403;SDS011;33157;51.508;4.288;2023-02-14T22:59:57;80.10;;;47.70;;
47403;SDS011;33157;51.508;4.288;2023-02-14T23:05:17;76.32;;;44.47;;
47403;SDS011;33157;51.508;4.288;2023-02-14T23:10:22;70.75;;;44.15;;
47403;SDS011;33157;51.508;4.288;2023-02-14T23:15:24;69.38;;;41.83;;
47403;SDS011;33157;51.508;4.288;2023-02-14T23:20:54;72.90;;;42.20;;
47403;SDS011;33157;51.508;4.288;2023-02-14T23:26:18;68.55;;;39.92;;
47403;SDS011;33157;51.508;4.288;2023-02-14T23:31:28;68.97;;;40.90;;
47403;SDS011;33157;51.508;4.288;2023-02-14T23:36:29;70.72;;;40.97;;
47403;SDS011;33157;51.508;4.288;2023-02-14T23:41:30;70.85;;;42.72;;
47403;SDS011;33157;51.508;4.288;2023-02-14T23:46:51;75.53;;;44.00;;
47403;SDS011;33157;51.508;4.288;2023-02-14T23:51:56;71.35;;;41.40;;
47403;SDS011;33157;51.508;4.288;2023-02-14T23:57:05;70.97;;;41.88;;
